createdAt,value
2018-04-17T00:00:15.119Z,8.80
2018-04-17T00:02:45.970Z,8.63
2018-04-17T00:05:16.827Z,8.52
2018-04-17T00:07:47.664Z,8.43
2018-04-17T00:10:18.513Z,8.46
2018-04-17T00:12:49.405Z,8.41
2018-04-17T00:15:20.295Z,8.43
2018-04-17T00:17:51.151Z,8.38
2018-04-17T00:20:22.096Z,8.33
2018-04-17T00:22:52.956Z,8.51
2018-04-17T00:25:23.823Z,8.46
2018-04-17T00:27:54.706Z,8.56
2018-04-17T00:30:25.543Z,8.52
2018-04-17T00:32:56.392Z,8.38
2018-04-17T00:35:34.209Z,8.35
2018-04-17T00:38:05.049Z,8.31
2018-04-17T00:40:35.947Z,8.33
2018-04-17T00:43:06.789Z,8.44
2018-04-17T00:45:37.628Z,8.44
2018-04-17T00:48:08.451Z,8.31
2018-04-17T00:50:39.318Z,8.26
2018-04-17T00:53:22.512Z,8.17
2018-04-17T00:55:53.432Z,8.08
2018-04-17T00:58:24.295Z,8.06
2018-04-17T01:00:55.209Z,8.04
2018-04-17T01:03:26.147Z,7.99
2018-04-17T01:05:57.126Z,7.92
2018-04-17T01:08:27.998Z,7.91
2018-04-17T01:10:58.863Z,8.01
2018-04-17T01:13:29.790Z,8.11
2018-04-17T01:16:00.689Z,8.09
2018-04-17T01:18:31.545Z,7.93
2018-04-17T01:21:02.418Z,7.89
2018-04-17T01:23:33.274Z,7.95
2018-04-17T01:26:04.176Z,8.00
2018-04-17T01:28:36.058Z,8.12
2018-04-17T01:31:08.014Z,8.14
2018-04-17T01:33:38.887Z,8.23
2018-04-17T01:36:09.824Z,8.37
2018-04-17T01:38:40.672Z,8.43
2018-04-17T01:41:11.555Z,8.46
2018-04-17T01:43:42.403Z,8.50
2018-04-17T01:46:13.381Z,8.62
2018-04-17T01:48:44.231Z,8.62
2018-04-17T01:51:15.097Z,8.69
2018-04-17T01:53:45.948Z,8.67
2018-04-17T01:56:16.852Z,8.72
2018-04-17T01:58:47.678Z,8.77
2018-04-17T02:01:18.535Z,8.83
2018-04-17T02:03:49.384Z,8.86
2018-04-17T02:06:20.249Z,8.80
2018-04-17T02:08:51.100Z,8.82
2018-04-17T02:11:21.943Z,8.82
2018-04-17T02:13:52.783Z,8.80
2018-04-17T02:16:23.705Z,8.78
2018-04-17T02:18:54.557Z,8.79
2018-04-17T02:21:25.429Z,8.74
2018-04-17T02:23:56.294Z,8.63
2018-04-17T02:26:27.183Z,8.70
2018-04-17T02:28:58.072Z,8.63
2018-04-17T02:31:28.921Z,8.56
2018-04-17T02:33:59.758Z,8.58
2018-04-17T02:36:30.652Z,8.56
2018-04-17T02:39:01.509Z,8.59
2018-04-17T02:41:32.371Z,8.61
2018-04-17T02:44:03.219Z,8.67
2018-04-17T02:46:34.110Z,8.53
2018-04-17T02:49:05.020Z,8.44
2018-04-17T02:51:35.865Z,8.53
2018-04-17T02:54:06.706Z,8.61
2018-04-17T02:56:37.559Z,8.60
2018-04-17T02:59:08.416Z,8.62
2018-04-17T03:01:39.263Z,8.67
2018-04-17T03:04:10.105Z,8.74
2018-04-17T03:06:40.956Z,8.78
2018-04-17T03:09:11.809Z,8.71
2018-04-17T03:11:42.655Z,8.67
2018-04-17T03:14:13.513Z,8.68
2018-04-17T03:16:44.474Z,8.69
2018-04-17T03:19:15.368Z,8.69
2018-04-17T03:21:46.228Z,8.72
2018-04-17T03:24:17.144Z,8.73
2018-04-17T03:26:48.046Z,8.71
2018-04-17T03:29:18.894Z,8.73
2018-04-17T03:31:49.773Z,8.72
2018-04-17T03:34:20.643Z,8.72
2018-04-17T03:36:51.503Z,8.74
2018-04-17T03:39:23.155Z,8.78
2018-04-17T03:41:54.071Z,8.70
2018-04-17T03:44:24.909Z,8.75
2018-04-17T03:46:55.763Z,8.77
2018-04-17T03:49:26.603Z,8.73
2018-04-17T03:51:57.447Z,8.69
2018-04-17T03:54:28.282Z,8.64
2018-04-17T03:56:59.226Z,8.66
2018-04-17T03:59:30.079Z,8.73
2018-04-17T04:02:00.943Z,8.58
2018-04-17T04:04:31.784Z,8.66
2018-04-17T04:07:02.659Z,8.66
2018-04-17T04:09:33.535Z,8.72
2018-04-17T04:12:04.395Z,8.72
2018-04-17T04:14:35.268Z,8.66
2018-04-17T04:17:18.476Z,8.54
2018-04-17T04:20:01.692Z,8.47
2018-04-17T04:22:44.886Z,8.40
2018-04-17T04:25:20.687Z,8.27
2018-04-17T04:27:51.548Z,8.27
2018-04-17T04:30:29.360Z,8.31
2018-04-17T04:33:00.193Z,8.38
2018-04-17T04:35:31.060Z,8.41
2018-04-17T04:38:01.928Z,8.47
2018-04-17T04:40:32.793Z,8.48
2018-04-17T04:43:03.651Z,8.33
2018-04-17T04:45:34.499Z,8.44
2018-04-17T04:48:05.356Z,8.48
2018-04-17T04:50:36.195Z,8.42
2018-04-17T04:53:07.120Z,8.41
2018-04-17T04:55:37.962Z,8.28
2018-04-17T04:58:08.844Z,8.35
2018-04-17T05:00:39.675Z,8.39
2018-04-17T05:03:10.519Z,8.31
2018-04-17T05:05:41.360Z,8.28
2018-04-17T05:08:12.263Z,8.30
2018-04-17T05:10:43.100Z,8.39
2018-04-17T05:13:13.956Z,8.48
2018-04-17T05:15:44.803Z,8.44
2018-04-17T05:18:16.192Z,8.29
2018-04-17T05:20:47.072Z,8.30
2018-04-17T05:23:17.992Z,8.43
2018-04-17T05:25:48.839Z,8.33
2018-04-17T05:28:19.717Z,8.40
2018-04-17T05:30:50.568Z,8.43
2018-04-17T05:33:21.470Z,8.53
2018-04-17T05:35:52.412Z,8.69
2018-04-17T05:38:23.286Z,8.78
2018-04-17T05:40:54.136Z,9.01
2018-04-17T05:43:24.987Z,9.04
2018-04-17T05:45:55.799Z,9.02
2018-04-17T05:48:26.651Z,9.12
2018-04-17T05:50:57.487Z,9.20
2018-04-17T05:53:28.338Z,9.15
2018-04-17T05:55:59.209Z,9.15
2018-04-17T05:58:29.966Z,9.14
2018-04-17T06:01:00.935Z,9.17
2018-04-17T06:03:31.788Z,9.34
2018-04-17T06:06:02.699Z,9.19
2018-04-17T06:08:33.512Z,9.13
2018-04-17T06:11:04.312Z,9.19
2018-04-17T06:13:35.120Z,9.52
2018-04-17T06:16:05.900Z,9.78
2018-04-17T06:18:36.719Z,9.77
2018-04-17T06:21:07.508Z,10.11
2018-04-17T06:23:38.315Z,10.26
2018-04-17T06:26:09.192Z,10.36
2018-04-17T06:28:39.942Z,10.60
2018-04-17T06:31:10.746Z,10.70
2018-04-17T06:33:41.577Z,10.84
2018-04-17T06:36:12.358Z,10.95
2018-04-17T06:38:43.168Z,11.01
2018-04-17T06:41:13.940Z,10.91
2018-04-17T06:43:44.793Z,10.71
2018-04-17T06:46:15.598Z,10.98
2018-04-17T06:48:46.402Z,10.99
2018-04-17T06:51:17.272Z,10.76
2018-04-17T06:53:48.089Z,10.82
2018-04-17T06:56:18.878Z,10.87
2018-04-17T06:58:49.721Z,10.82
2018-04-17T07:01:20.524Z,11.29
2018-04-17T07:03:51.351Z,11.39
2018-04-17T07:06:22.132Z,11.69
2018-04-17T07:08:52.927Z,11.79
2018-04-17T07:11:23.720Z,11.75
2018-04-17T07:13:54.527Z,11.97
2018-04-17T07:16:25.311Z,11.95
2018-04-17T07:18:56.394Z,12.45
2018-04-17T07:21:27.243Z,12.73
2018-04-17T07:23:58.053Z,12.76
2018-04-17T07:26:30.037Z,12.55
2018-04-17T07:29:00.868Z,12.28
2018-04-17T07:31:31.712Z,12.50
2018-04-17T07:34:02.552Z,12.68
2018-04-17T07:36:33.361Z,12.86
2018-04-17T07:39:04.214Z,12.51
2018-04-17T07:41:35.020Z,12.79
2018-04-17T07:44:05.860Z,13.36
2018-04-17T07:46:36.707Z,13.58
2018-04-17T07:49:07.528Z,13.79
2018-04-17T07:51:38.345Z,14.24
2018-04-17T07:54:09.176Z,13.99
2018-04-17T07:56:39.963Z,13.20
2018-04-17T07:59:10.812Z,13.30
2018-04-17T08:01:41.693Z,14.04
2018-04-17T08:04:12.617Z,14.44
2018-04-17T08:06:43.497Z,14.88
2018-04-17T08:09:14.378Z,14.71
2018-04-17T08:11:45.189Z,14.28
2018-04-17T08:14:16.017Z,15.06
2018-04-17T08:16:46.799Z,15.66
2018-04-17T08:19:17.621Z,14.94
2018-04-17T08:21:48.415Z,15.75
2018-04-17T08:24:19.281Z,15.74
2018-04-17T08:26:50.144Z,15.70
2018-04-17T08:29:20.956Z,15.97
2018-04-17T08:31:51.729Z,16.06
2018-04-17T08:34:22.550Z,16.22
2018-04-17T08:36:53.371Z,16.35
2018-04-17T08:39:24.162Z,16.31
2018-04-17T08:41:54.957Z,16.66
2018-04-17T08:44:25.768Z,16.76
2018-04-17T08:46:56.604Z,17.49
2018-04-17T08:49:27.400Z,18.21
2018-04-17T08:51:58.179Z,17.88
2018-04-17T08:54:29.021Z,18.42
2018-04-17T08:56:59.824Z,18.47
2018-04-17T08:59:30.614Z,19.17
2018-04-17T09:02:01.457Z,19.39
2018-04-17T09:04:32.281Z,19.36
2018-04-17T09:07:03.073Z,19.84
2018-04-17T09:09:33.868Z,19.96
2018-04-17T09:12:04.637Z,19.31
2018-04-17T09:14:35.472Z,19.24
2018-04-17T09:17:06.271Z,18.81
2018-04-17T09:19:37.072Z,18.68
2018-04-17T09:22:07.885Z,19.04
2018-04-17T09:24:38.732Z,18.84
2018-04-17T09:27:09.514Z,19.17
2018-04-17T09:29:40.307Z,19.36
2018-04-17T09:32:11.092Z,19.72
2018-04-17T09:34:41.883Z,19.83
2018-04-17T09:37:12.727Z,20.16
2018-04-17T09:39:43.579Z,21.14
2018-04-17T09:42:14.420Z,21.42
2018-04-17T09:44:45.275Z,21.63
2018-04-17T09:47:16.061Z,21.84
2018-04-17T09:49:46.919Z,22.27
2018-04-17T09:52:17.780Z,22.30
2018-04-17T09:54:48.610Z,21.76
2018-04-17T09:57:19.537Z,21.49
2018-04-17T09:59:50.365Z,21.10
2018-04-17T10:02:21.169Z,21.08
2018-04-17T10:04:52.011Z,20.98
2018-04-17T10:07:22.806Z,20.60
2018-04-17T10:09:53.723Z,21.30
2018-04-17T10:12:24.556Z,21.57
2018-04-17T10:14:55.350Z,22.08
2018-04-17T10:17:26.162Z,22.71
2018-04-17T10:19:56.995Z,23.18
2018-04-17T10:22:27.774Z,22.26
2018-04-17T10:24:58.625Z,22.39
2018-04-17T10:27:29.428Z,23.28
2018-04-17T10:30:00.228Z,23.78
2018-04-17T10:32:31.032Z,23.88
2018-04-17T10:35:01.880Z,24.30
2018-04-17T10:37:32.662Z,24.30
2018-04-17T10:40:03.501Z,24.38
2018-04-17T10:42:34.292Z,24.05
2018-04-17T10:45:05.104Z,24.31
2018-04-17T10:47:35.885Z,23.57
2018-04-17T10:50:06.693Z,23.59
2018-04-17T10:52:37.474Z,24.98
2018-04-17T10:55:08.325Z,24.84
2018-04-17T10:57:39.100Z,25.04
2018-04-17T11:00:09.938Z,25.22
2018-04-17T11:02:40.723Z,24.96
2018-04-17T11:05:11.506Z,24.92
2018-04-17T11:07:42.321Z,25.22
2018-04-17T11:10:13.125Z,25.42
2018-04-17T11:12:43.892Z,25.38
2018-04-17T11:15:14.715Z,25.64
2018-04-17T11:17:45.488Z,26.08
2018-04-17T11:20:16.360Z,26.49
2018-04-17T11:22:47.157Z,26.02
2018-04-17T11:25:17.982Z,26.19
2018-04-17T11:27:48.772Z,25.18
2018-04-17T11:30:19.593Z,24.19
2018-04-17T11:32:50.366Z,24.79
2018-04-17T11:35:21.245Z,25.03
2018-04-17T11:37:52.023Z,25.23
2018-04-17T11:40:22.818Z,25.43
2018-04-17T11:42:53.611Z,24.56
2018-04-17T11:45:24.416Z,24.28
2018-04-17T11:47:55.229Z,24.92
2018-04-17T11:50:26.013Z,24.46
2018-04-17T11:52:56.859Z,25.17
2018-04-17T11:55:27.644Z,25.08
2018-04-17T11:57:58.427Z,23.90
2018-04-17T12:00:29.271Z,24.26
2018-04-17T12:03:00.039Z,24.15
2018-04-17T12:05:30.835Z,24.80
2018-04-17T12:08:01.659Z,24.70
2018-04-17T12:10:32.497Z,24.51
2018-04-17T12:13:03.291Z,24.71
2018-04-17T12:15:34.108Z,25.84
2018-04-17T12:18:04.896Z,26.19
2018-04-17T12:20:35.707Z,26.72
2018-04-17T12:23:06.489Z,27.20
2018-04-17T12:25:37.276Z,26.90
2018-04-17T12:28:08.055Z,26.92
2018-04-17T12:30:38.916Z,27.85
2018-04-17T12:33:09.704Z,26.72
2018-04-17T12:35:40.644Z,25.66
2018-04-17T12:38:11.440Z,25.16
2018-04-17T12:40:42.237Z,25.53
2018-04-17T12:43:13.021Z,26.41
2018-04-17T12:45:43.799Z,26.69
2018-04-17T12:48:14.565Z,27.65
2018-04-17T12:50:45.402Z,27.63
2018-04-17T12:53:16.187Z,27.34
2018-04-17T12:55:47.020Z,28.06
2018-04-17T12:58:17.796Z,26.84
2018-04-17T13:00:48.611Z,25.42
2018-04-17T13:03:19.491Z,27.13
2018-04-17T13:05:50.290Z,28.02
2018-04-17T13:08:21.189Z,29.93
2018-04-17T13:10:52.036Z,29.62
2018-04-17T13:13:22.811Z,30.66
2018-04-17T13:15:53.710Z,30.70
2018-04-17T13:18:24.512Z,29.45
2018-04-17T13:20:55.311Z,30.57
2018-04-17T13:23:26.108Z,30.00
2018-04-17T13:25:56.902Z,30.34
2018-04-17T13:28:27.705Z,31.44
2018-04-17T13:30:58.479Z,30.96
2018-04-17T13:33:29.247Z,30.49
2018-04-17T13:36:00.023Z,29.18
2018-04-17T13:38:30.836Z,30.08
2018-04-17T13:41:01.616Z,31.28
2018-04-17T13:43:32.423Z,31.21
2018-04-17T13:46:03.232Z,32.12
2018-04-17T13:48:34.079Z,31.48
2018-04-17T13:51:04.861Z,30.08
2018-04-17T13:53:35.659Z,26.68
2018-04-17T13:56:06.449Z,26.49
2018-04-17T13:58:37.284Z,29.04
2018-04-17T14:01:09.047Z,26.96
2018-04-17T14:03:39.847Z,29.06
2018-04-17T14:06:10.644Z,30.82
2018-04-17T14:08:41.464Z,31.89
2018-04-17T14:11:12.239Z,33.30
2018-04-17T14:13:43.034Z,34.02
2018-04-17T14:16:13.806Z,33.04
2018-04-17T14:18:44.653Z,32.98
2018-04-17T14:21:15.452Z,31.00
2018-04-17T14:23:46.267Z,27.46
2018-04-17T14:26:17.059Z,26.03
2018-04-17T14:28:47.852Z,24.80
2018-04-17T14:31:18.644Z,23.59
2018-04-17T14:33:49.471Z,24.54
2018-04-17T14:36:20.283Z,27.79
2018-04-17T14:38:51.147Z,27.58
2018-04-17T14:41:21.944Z,29.22
2018-04-17T14:43:52.759Z,30.52
2018-04-17T14:46:23.544Z,30.07
2018-04-17T14:48:54.360Z,30.95
2018-04-17T14:51:25.217Z,30.51
2018-04-17T14:53:56.037Z,30.61
2018-04-17T14:56:26.824Z,31.24
2018-04-17T14:58:57.627Z,31.30
2018-04-17T15:01:28.420Z,28.63
2018-04-17T15:03:59.209Z,29.15
2018-04-17T15:06:30.043Z,29.24
2018-04-17T15:09:00.859Z,28.35
2018-04-17T15:11:38.564Z,29.69
2018-04-17T15:14:09.376Z,31.28
2018-04-17T15:16:40.316Z,31.69
2018-04-17T15:19:11.192Z,29.50
2018-04-17T15:21:42.124Z,30.41
2018-04-17T15:24:13.105Z,28.82
2018-04-17T15:26:43.954Z,28.49
2018-04-17T15:29:14.783Z,29.45
2018-04-17T15:31:45.580Z,30.13
2018-04-17T15:34:16.451Z,29.30
2018-04-17T15:36:47.236Z,29.95
2018-04-17T15:39:18.080Z,30.36
2018-04-17T15:41:48.880Z,29.72
2018-04-17T15:44:19.705Z,30.00
2018-04-17T15:46:50.531Z,29.93
2018-04-17T15:49:21.448Z,29.11
2018-04-17T15:54:28.772Z,27.54
2018-04-17T15:56:59.540Z,27.08
2018-04-17T15:59:30.353Z,26.34
2018-04-17T16:02:01.143Z,25.93
2018-04-17T16:04:31.972Z,25.55
2018-04-17T16:07:02.910Z,25.18
2018-04-17T16:09:33.751Z,24.75
2018-04-17T16:12:04.508Z,24.40
2018-04-17T16:14:35.408Z,24.13
2018-04-17T16:17:06.270Z,23.89
2018-04-17T16:19:37.109Z,23.82
2018-04-17T16:22:07.908Z,23.37
2018-04-17T16:24:38.696Z,22.96
2018-04-17T16:27:09.489Z,22.87
2018-04-17T16:29:40.343Z,22.52
2018-04-17T16:32:11.145Z,22.51
2018-04-17T16:34:41.931Z,22.55
2018-04-17T16:37:12.771Z,22.36
2018-04-17T16:39:43.604Z,22.26
2018-04-17T16:42:14.470Z,22.09
2018-04-17T16:44:45.323Z,21.97
2018-04-17T16:47:16.110Z,21.83
2018-04-17T16:49:46.910Z,21.73
2018-04-17T16:52:17.699Z,21.47
2018-04-17T16:54:48.500Z,21.40
2018-04-17T16:57:19.394Z,21.21
2018-04-17T16:59:50.204Z,21.11
2018-04-17T17:02:21.025Z,21.08
2018-04-17T17:04:51.832Z,21.02
2018-04-17T17:07:22.626Z,20.97
2018-04-17T17:09:53.438Z,20.75
2018-04-17T17:12:24.229Z,20.64
2018-04-17T17:14:55.079Z,20.44
2018-04-17T17:17:25.868Z,20.35
2018-04-17T17:19:56.704Z,20.18
2018-04-17T17:22:27.543Z,20.10
2018-04-17T17:24:58.359Z,19.97
2018-04-17T17:27:29.159Z,19.89
2018-04-17T17:29:59.975Z,19.71
2018-04-17T17:32:30.827Z,19.62
2018-04-17T17:35:01.764Z,19.47
2018-04-17T17:37:32.554Z,19.34
2018-04-17T17:40:03.433Z,19.10
2018-04-17T17:42:34.236Z,18.91
2018-04-17T17:45:05.117Z,18.85
2018-04-17T17:47:35.916Z,18.77
2018-04-17T17:50:06.848Z,18.61
2018-04-17T17:52:37.744Z,18.54
2018-04-17T17:55:08.563Z,18.26
2018-04-17T17:57:39.396Z,18.13
2018-04-17T18:00:10.225Z,17.93
2018-04-17T18:02:41.139Z,17.61
2018-04-17T18:05:11.962Z,17.57
2018-04-17T18:07:42.759Z,17.38
2018-04-17T18:10:13.687Z,17.27
2018-04-17T18:12:44.479Z,17.15
2018-04-17T18:15:15.426Z,16.99
2018-04-17T18:17:46.205Z,17.06
2018-04-17T18:20:17.016Z,16.97
2018-04-17T18:22:47.801Z,17.04
2018-04-17T18:25:18.676Z,16.92
2018-04-17T18:27:49.495Z,16.89
2018-04-17T18:30:20.363Z,16.85
2018-04-17T18:32:51.145Z,16.80
2018-04-17T18:35:22.208Z,16.66
2018-04-17T18:37:53.072Z,16.33
2018-04-17T18:40:23.912Z,16.39
2018-04-17T18:42:54.721Z,16.28
2018-04-17T18:45:25.523Z,16.08
2018-04-17T18:47:56.460Z,16.02
2018-04-17T18:50:27.331Z,16.37
2018-04-17T18:52:58.192Z,16.47
2018-04-17T18:55:29.012Z,16.14
2018-04-17T18:57:59.932Z,15.88
2018-04-17T19:00:30.879Z,15.66
2018-04-17T19:03:01.686Z,15.55
2018-04-17T19:05:32.554Z,15.32
2018-04-17T19:08:03.337Z,15.22
2018-04-17T19:10:34.207Z,15.10
2018-04-17T19:13:05.004Z,14.93
2018-04-17T19:15:35.849Z,14.68
2018-04-17T19:18:06.629Z,14.45
2018-04-17T19:20:37.463Z,14.31
2018-04-17T19:23:08.252Z,14.33
2018-04-17T19:25:39.101Z,14.52
2018-04-17T19:28:09.898Z,14.52
2018-04-17T19:30:40.751Z,14.40
2018-04-17T19:33:11.548Z,14.26
2018-04-17T19:35:42.348Z,14.13
2018-04-17T19:38:13.137Z,14.07
2018-04-17T19:40:44.008Z,14.07
2018-04-17T19:43:14.863Z,13.98
2018-04-17T19:45:45.675Z,13.94
2018-04-17T19:48:16.475Z,13.85
2018-04-17T19:50:47.340Z,13.95
2018-04-17T19:53:18.155Z,13.91
2018-04-17T19:55:49.011Z,13.84
2018-04-17T19:58:19.855Z,13.77
2018-04-17T20:00:50.943Z,13.88
2018-04-17T20:03:21.872Z,13.96
2018-04-17T20:05:52.695Z,13.98
2018-04-17T20:08:24.452Z,13.89
2018-04-17T20:10:55.344Z,13.68
2018-04-17T20:13:26.146Z,13.52
2018-04-17T20:15:57.055Z,13.37
2018-04-17T20:18:27.924Z,13.20
2018-04-17T20:20:58.900Z,13.01
2018-04-17T20:23:29.723Z,12.88
2018-04-17T20:26:00.685Z,12.77
2018-04-17T20:28:31.565Z,12.67
2018-04-17T20:31:02.427Z,12.63
2018-04-17T20:33:33.343Z,12.60
2018-04-17T20:36:04.176Z,12.60
2018-04-17T20:38:34.985Z,12.53
2018-04-17T20:41:05.802Z,12.43
2018-04-17T20:43:36.850Z,12.38
2018-04-17T20:46:07.742Z,12.45
2018-04-17T20:48:38.563Z,12.40
2018-04-17T20:51:09.402Z,12.31
2018-04-17T20:53:40.255Z,12.30
2018-04-17T20:56:11.129Z,12.22
2018-04-17T20:58:41.955Z,12.25
2018-04-17T21:01:12.871Z,12.38
2018-04-17T21:03:43.714Z,12.33
2018-04-17T21:06:14.549Z,12.33
2018-04-17T21:08:45.404Z,12.48
2018-04-17T21:11:16.268Z,12.32
2018-04-17T21:13:47.263Z,12.26
2018-04-17T21:16:18.157Z,12.12
2018-04-17T21:18:48.974Z,11.91
2018-04-17T21:21:19.834Z,11.89
2018-04-17T21:23:50.616Z,11.88
2018-04-17T21:26:21.411Z,11.96
2018-04-17T21:28:52.216Z,11.95
2018-04-17T21:31:23.032Z,11.85
2018-04-17T21:33:53.860Z,11.76
2018-04-17T21:36:24.687Z,11.78
2018-04-17T21:38:55.529Z,11.72
2018-04-17T21:41:26.360Z,11.67
2018-04-17T21:43:57.161Z,11.80
2018-04-17T21:46:27.956Z,11.67
2018-04-17T21:48:58.808Z,11.55
2018-04-17T21:51:29.631Z,11.43
2018-04-17T21:54:00.456Z,11.23
2018-04-17T21:56:31.494Z,11.12
2018-04-17T21:59:02.405Z,11.05
2018-04-17T22:01:33.292Z,10.95
2018-04-17T22:04:04.135Z,10.85
2018-04-17T22:06:35.045Z,10.89
2018-04-17T22:09:05.912Z,10.93
2018-04-17T22:11:36.787Z,10.92
2018-04-17T22:14:07.671Z,10.76
2018-04-17T22:16:38.597Z,10.73
2018-04-17T22:19:09.456Z,10.69
2018-04-17T22:21:40.340Z,10.61
2018-04-17T22:24:11.205Z,10.54
2018-04-17T22:26:42.088Z,10.55
2018-04-17T22:29:12.951Z,10.48
2018-04-17T22:31:43.798Z,10.48
2018-04-17T22:34:14.693Z,10.33
2018-04-17T22:36:45.552Z,10.29
2018-04-17T22:39:16.385Z,10.35
2018-04-17T22:41:47.332Z,10.43
2018-04-17T22:44:18.149Z,10.39
2018-04-17T22:46:49.011Z,10.33
2018-04-17T22:49:19.839Z,10.30
2018-04-17T22:51:50.729Z,10.36
2018-04-17T22:54:21.580Z,10.32
2018-04-17T22:56:52.427Z,10.21
2018-04-17T22:59:23.291Z,10.19
2018-04-17T23:01:54.130Z,10.06
2018-04-17T23:04:24.952Z,9.94
2018-04-17T23:06:55.947Z,10.02
2018-04-17T23:09:26.808Z,10.09
2018-04-17T23:11:57.662Z,9.98
2018-04-17T23:14:28.473Z,9.97
2018-04-17T23:16:59.319Z,10.05
2018-04-17T23:19:30.160Z,9.93
2018-04-17T23:22:01.216Z,9.93
2018-04-17T23:24:32.049Z,9.88
2018-04-17T23:27:02.879Z,9.69
2018-04-17T23:29:33.652Z,9.69
2018-04-17T23:32:04.481Z,9.59
2018-04-17T23:34:35.308Z,9.51
2018-04-17T23:37:06.127Z,9.44
2018-04-17T23:39:36.932Z,9.46
2018-04-17T23:42:07.726Z,9.44
2018-04-17T23:44:38.505Z,9.49
2018-04-17T23:47:09.328Z,9.50
2018-04-17T23:49:40.125Z,9.40
2018-04-17T23:52:10.936Z,9.34
2018-04-17T23:54:41.772Z,9.20
2018-04-17T23:57:12.583Z,9.22
2018-04-17T23:59:43.431Z,9.18
